sensor_id;sensor_type;location;lat;lon;timestamp;pressure;altitude;pressure_sealevel;temperature;humidity
68508;BME280;55510;49.560;19.090;2023-05-27T11:04:43;97132.03;;;19.86;52.94
68508;BME280;55510;49.560;19.090;2023-05-27T11:07:44;97128.91;;;19.74;52.72
68508;BME280;55510;49.560;19.090;2023-05-27T11:10:44;97131.22;;;19.91;50.74
68508;BME280;55510;49.560;19.090;2023-05-27T11:13:46;97119.16;;;19.78;49.64
68508;BME280;55510;49.560;19.090;2023-05-27T11:16:47;97126.69;;;19.81;51.11
68508;BME280;55510;49.560;19.090;2023-05-27T11:19:49;97128.84;;;19.79;49.05
68508;BME280;55510;49.560;19.090;2023-05-27T11:22:53;97133.69;;;19.82;52.01
68508;BME280;55510;49.560;19.090;2023-05-27T11:25:53;97115.19;;;20.00;49.91
68508;BME280;55510;49.560;19.090;2023-05-27T11:28:57;97124.50;;;19.83;50.67
68508;BME280;55510;49.560;19.090;2023-05-27T11:31:58;97118.47;;;19.97;51.03
68508;BME280;55510;49.560;19.090;2023-05-27T11:34:59;97119.97;;;20.08;49.24
68508;BME280;55510;49.560;19.090;2023-05-27T11:38:00;97112.19;;;20.26;49.22
68508;BME280;55510;49.560;19.090;2023-05-27T11:41:08;97108.38;;;20.27;49.65
68508;BME280;55510;49.560;19.090;2023-05-27T11:44:09;97099.44;;;20.07;45.88
68508;BME280;55510;49.560;19.090;2023-05-27T11:47:09;97101.50;;;20.16;50.61
68508;BME280;55510;49.560;19.090;2023-05-27T11:50:10;97109.22;;;20.27;48.76
68508;BME280;55510;49.560;19.090;2023-05-27T11:53:11;97101.09;;;20.27;48.98
68508;BME280;55510;49.560;19.090;2023-05-27T11:56:16;97106.97;;;20.10;46.72
68508;BME280;55510;49.560;19.090;2023-05-27T11:59:17;97104.91;;;20.02;47.49
68508;BME280;55510;49.560;19.090;2023-05-27T12:02:18;97104.31;;;20.05;46.52
68508;BME280;55510;49.560;19.090;2023-05-27T12:05:21;97099.84;;;19.95;47.23
68508;BME280;55510;49.560;19.090;2023-05-27T12:08:22;97103.28;;;20.01;47.42
68508;BME280;55510;49.560;19.090;2023-05-27T12:11:22;97092.88;;;20.13;49.02
68508;BME280;55510;49.560;19.090;2023-05-27T12:14:23;97095.81;;;20.17;45.23
68508;BME280;55510;49.560;19.090;2023-05-27T12:17:24;97091.38;;;20.26;46.09
68508;BME280;55510;49.560;19.090;2023-05-27T12:20:25;97085.34;;;20.54;45.68
68508;BME280;55510;49.560;19.090;2023-05-27T12:23:27;97088.13;;;20.49;46.72
68508;BME280;55510;49.560;19.090;2023-05-27T12:26:28;97087.31;;;20.67;45.30
68508;BME280;55510;49.560;19.090;2023-05-27T12:29:29;97092.19;;;20.46;43.19
68508;BME280;55510;49.560;19.090;2023-05-27T12:32:30;97077.16;;;20.59;44.81
68508;BME280;55510;49.560;19.090;2023-05-27T12:35:31;97079.94;;;20.54;42.68
68508;BME280;55510;49.560;19.090;2023-05-27T12:38:33;97078.69;;;20.65;44.52
68508;BME280;55510;49.560;19.090;2023-05-27T12:41:33;97076.38;;;20.78;49.50
68508;BME280;55510;49.560;19.090;2023-05-27T12:44:34;97073.13;;;20.76;44.56
68508;BME280;55510;49.560;19.090;2023-05-27T12:47:34;97072.38;;;20.94;46.74
68508;BME280;55510;49.560;19.090;2023-05-27T12:50:35;97071.63;;;21.08;44.57
68508;BME280;55510;49.560;19.090;2023-05-27T12:53:36;97076.59;;;21.00;44.15
68508;BME280;55510;49.560;19.090;2023-05-27T12:56:39;97076.09;;;20.98;42.95
68508;BME280;55510;49.560;19.090;2023-05-27T12:59:41;97074.31;;;21.08;41.90
68508;BME280;55510;49.560;19.090;2023-05-27T13:02:43;97070.88;;;21.21;45.27
68508;BME280;55510;49.560;19.090;2023-05-27T13:05:43;97062.53;;;21.18;44.16
68508;BME280;55510;49.560;19.090;2023-05-27T13:08:45;97068.41;;;21.06;43.67
68508;BME280;55510;49.560;19.090;2023-05-27T13:11:45;97051.81;;;20.74;44.19
68508;BME280;55510;49.560;19.090;2023-05-27T13:14:47;97052.78;;;20.83;46.00
68508;BME280;55510;49.560;19.090;2023-05-27T13:17:49;97042.28;;;20.77;44.55
68508;BME280;55510;49.560;19.090;2023-05-27T13:20:50;97039.03;;;20.61;42.39
68508;BME280;55510;49.560;19.090;2023-05-27T13:23:52;97047.34;;;20.64;44.00
68508;BME280;55510;49.560;19.090;2023-05-27T13:26:53;97035.94;;;20.67;42.53
68508;BME280;55510;49.560;19.090;2023-05-27T13:29:53;97052.91;;;20.73;44.51
68508;BME280;55510;49.560;19.090;2023-05-27T13:32:54;97046.28;;;20.84;46.57
68508;BME280;55510;49.560;19.090;2023-05-27T13:35:59;97039.09;;;20.94;43.95
68508;BME280;55510;49.560;19.090;2023-05-27T13:39:00;97035.97;;;21.20;46.25
68508;BME280;55510;49.560;19.090;2023-05-27T13:42:00;97038.47;;;21.16;45.12
68508;BME280;55510;49.560;19.090;2023-05-27T13:45:02;97037.25;;;21.08;45.34
68508;BME280;55510;49.560;19.090;2023-05-27T13:48:02;97027.41;;;20.98;44.85
68508;BME280;55510;49.560;19.090;2023-05-27T13:51:03;97031.13;;;21.03;44.35
68508;BME280;55510;49.560;19.090;2023-05-27T13:54:04;97023.16;;;20.92;44.98
68508;BME280;55510;49.560;19.090;2023-05-27T13:57:04;97023.38;;;20.96;45.57
68508;BME280;55510;49.560;19.090;2023-05-27T14:00:06;97022.75;;;20.85;44.49
68508;BME280;55510;49.560;19.090;2023-05-27T14:03:07;97013.72;;;20.90;46.83
68508;BME280;55510;49.560;19.090;2023-05-27T14:06:07;97012.53;;;20.82;45.73
68508;BME280;55510;49.560;19.090;2023-05-27T14:09:09;97015.75;;;20.98;42.88
68508;BME280;55510;49.560;19.090;2023-05-27T14:12:10;97013.63;;;20.95;41.84
68508;BME280;55510;49.560;19.090;2023-05-27T14:15:11;97003.88;;;21.13;45.97
68508;BME280;55510;49.560;19.090;2023-05-27T14:18:12;97004.22;;;21.25;44.76
68508;BME280;55510;49.560;19.090;2023-05-27T14:21:14;97009.19;;;21.18;44.22
68508;BME280;55510;49.560;19.090;2023-05-27T14:24:15;96995.78;;;21.27;43.44
68508;BME280;55510;49.560;19.090;2023-05-27T14:27:16;96995.09;;;21.35;43.28
68508;BME280;55510;49.560;19.090;2023-05-27T14:30:16;96992.50;;;21.44;44.73
68508;BME280;55510;49.560;19.090;2023-05-27T14:33:20;96993.91;;;21.27;44.80
68508;BME280;55510;49.560;19.090;2023-05-27T14:36:21;96984.94;;;21.13;44.25
68508;BME280;55510;49.560;19.090;2023-05-27T14:39:22;96983.50;;;21.01;44.09
68508;BME280;55510;49.560;19.090;2023-05-27T14:42:22;96979.09;;;21.06;43.90
68508;BME280;55510;49.560;19.090;2023-05-27T14:45:23;96970.63;;;21.26;45.15
68508;BME280;55510;49.560;19.090;2023-05-27T14:48:25;96973.16;;;21.37;43.88
68508;BME280;55510;49.560;19.090;2023-05-27T14:51:26;96973.25;;;21.32;40.53
68508;BME280;55510;49.560;19.090;2023-05-27T14:54:27;96968.34;;;21.62;42.51
68508;BME280;55510;49.560;19.090;2023-05-27T14:57:27;96968.28;;;21.67;43.60
68508;BME280;55510;49.560;19.090;2023-05-27T15:00:28;96963.53;;;21.58;41.35
68508;BME280;55510;49.560;19.090;2023-05-27T15:03:29;96966.72;;;21.61;40.69
68508;BME280;55510;49.560;19.090;2023-05-27T15:06:30;96968.84;;;21.92;39.84
68508;BME280;55510;49.560;19.090;2023-05-27T15:09:31;96966.97;;;22.66;38.61
68508;BME280;55510;49.560;19.090;2023-05-27T15:12:42;96958.84;;;24.01;37.19
68508;BME280;55510;49.560;19.090;2023-05-27T15:15:43;96968.28;;;25.00;34.73
68508;BME280;55510;49.560;19.090;2023-05-27T15:18:44;96954.78;;;25.22;32.06
68508;BME280;55510;49.560;19.090;2023-05-27T15:21:45;96958.53;;;25.56;31.50
68508;BME280;55510;49.560;19.090;2023-05-27T15:24:47;96964.69;;;26.46;30.67
68508;BME280;55510;49.560;19.090;2023-05-27T15:27:48;96962.38;;;26.57;30.36
68508;BME280;55510;49.560;19.090;2023-05-27T15:30:49;96959.75;;;27.16;29.75
68508;BME280;55510;49.560;19.090;2023-05-27T15:33:50;96958.97;;;27.28;29.72
68508;BME280;55510;49.560;19.090;2023-05-27T15:36:51;96964.06;;;27.04;28.95
68508;BME280;55510;49.560;19.090;2023-05-27T15:39:54;96959.13;;;26.64;30.25
68508;BME280;55510;49.560;19.090;2023-05-27T15:42:55;96963.91;;;26.88;29.44
68508;BME280;55510;49.560;19.090;2023-05-27T15:45:56;96958.00;;;26.99;28.79
68508;BME280;55510;49.560;19.090;2023-05-27T15:48:59;96963.81;;;26.12;27.82
68508;BME280;55510;49.560;19.090;2023-05-27T15:52:00;96953.47;;;25.97;28.02
68508;BME280;55510;49.560;19.090;2023-05-27T15:55:01;96954.28;;;25.97;26.38
68508;BME280;55510;49.560;19.090;2023-05-27T15:58:02;96954.56;;;25.36;26.96
68508;BME280;55510;49.560;19.090;2023-05-27T16:01:02;96958.69;;;24.94;28.16
68508;BME280;55510;49.560;19.090;2023-05-27T16:04:04;96954.50;;;25.62;26.73
68508;BME280;55510;49.560;19.090;2023-05-27T16:07:06;96948.88;;;25.11;26.69
68508;BME280;55510;49.560;19.090;2023-05-27T16:10:07;96941.44;;;23.53;28.57
68508;BME280;55510;49.560;19.090;2023-05-27T16:13:08;96947.00;;;24.67;28.22
68508;BME280;55510;49.560;19.090;2023-05-27T16:16:09;96946.88;;;24.55;26.83
68508;BME280;55510;49.560;19.090;2023-05-27T16:19:09;96944.13;;;24.90;25.93
68508;BME280;55510;49.560;19.090;2023-05-27T16:22:11;96935.91;;;23.26;29.08
68508;BME280;55510;49.560;19.090;2023-05-27T16:25:11;96938.75;;;22.30;29.37
68508;BME280;55510;49.560;19.090;2023-05-27T16:28:12;96936.16;;;21.46;30.59
68508;BME280;55510;49.560;19.090;2023-05-27T16:31:13;96930.28;;;20.64;31.98
68508;BME280;55510;49.560;19.090;2023-05-27T16:34:14;96932.38;;;20.14;33.31
68508;BME280;55510;49.560;19.090;2023-05-27T16:37:14;96931.50;;;20.00;33.05
68508;BME280;55510;49.560;19.090;2023-05-27T16:40:15;96930.75;;;19.94;34.01
68508;BME280;55510;49.560;19.090;2023-05-27T16:43:16;96932.84;;;19.54;33.52
68508;BME280;55510;49.560;19.090;2023-05-27T16:46:16;96928.78;;;19.32;34.37
68508;BME280;55510;49.560;19.090;2023-05-27T16:49:17;96931.31;;;18.94;35.61
68508;BME280;55510;49.560;19.090;2023-05-27T16:52:18;96932.38;;;18.63;36.70
68508;BME280;55510;49.560;19.090;2023-05-27T16:55:18;96930.59;;;18.14;38.32
68508;BME280;55510;49.560;19.090;2023-05-27T16:58:19;96930.63;;;18.03;38.36
68508;BME280;55510;49.560;19.090;2023-05-27T17:01:21;96934.50;;;17.81;39.66
68508;BME280;55510;49.560;19.090;2023-05-27T17:04:22;96936.22;;;17.57;41.16
68508;BME280;55510;49.560;19.090;2023-05-27T17:07:23;96929.28;;;17.40;40.70
68508;BME280;55510;49.560;19.090;2023-05-27T17:10:24;96934.22;;;17.02;40.50
68508;BME280;55510;49.560;19.090;2023-05-27T17:13:24;96934.75;;;16.73;40.08
68508;BME280;55510;49.560;19.090;2023-05-27T17:16:26;96930.47;;;16.46;40.76
68508;BME280;55510;49.560;19.090;2023-05-27T17:19:27;96935.84;;;16.35;41.48
68508;BME280;55510;49.560;19.090;2023-05-27T17:22:28;96937.94;;;16.28;41.91
68508;BME280;55510;49.560;19.090;2023-05-27T17:25:28;96941.16;;;16.15;43.06
68508;BME280;55510;49.560;19.090;2023-05-27T17:28:29;96933.34;;;16.03;41.87
68508;BME280;55510;49.560;19.090;2023-05-27T17:31:30;96934.94;;;15.88;43.18
68508;BME280;55510;49.560;19.090;2023-05-27T17:34:32;96939.41;;;15.77;42.66
68508;BME280;55510;49.560;19.090;2023-05-27T17:37:33;96940.97;;;15.58;42.58
68508;BME280;55510;49.560;19.090;2023-05-27T17:40:34;96942.78;;;15.42;41.90
68508;BME280;55510;49.560;19.090;2023-05-27T17:43:35;96949.94;;;15.26;44.50
68508;BME280;55510;49.560;19.090;2023-05-27T17:46:36;96950.41;;;15.12;44.42
68508;BME280;55510;49.560;19.090;2023-05-27T17:49:36;96947.63;;;15.02;44.55
68508;BME280;55510;49.560;19.090;2023-05-27T17:52:40;96956.41;;;14.87;45.51
68508;BME280;55510;49.560;19.090;2023-05-27T17:55:41;96958.34;;;14.69;46.63
68508;BME280;55510;49.560;19.090;2023-05-27T17:58:42;96955.53;;;14.48;48.56
68508;BME280;55510;49.560;19.090;2023-05-27T18:01:42;96955.03;;;14.24;50.55
68508;BME280;55510;49.560;19.090;2023-05-27T18:04:44;96950.78;;;14.01;51.55
68508;BME280;55510;49.560;19.090;2023-05-27T18:07:44;96956.66;;;13.75;52.67
68508;BME280;55510;49.560;19.090;2023-05-27T18:10:45;96959.00;;;13.49;54.09
68508;BME280;55510;49.560;19.090;2023-05-27T18:13:46;96954.69;;;13.26;55.41
68508;BME280;55510;49.560;19.090;2023-05-27T18:16:47;96951.72;;;13.05;55.65
68508;BME280;55510;49.560;19.090;2023-05-27T18:19:48;96956.53;;;12.86;56.85
68508;BME280;55510;49.560;19.090;2023-05-27T18:22:49;96944.78;;;12.53;57.69
68508;BME280;55510;49.560;19.090;2023-05-27T18:25:49;96953.00;;;12.35;59.44
68508;BME280;55510;49.560;19.090;2023-05-27T18:28:50;96957.28;;;12.18;61.28
68508;BME280;55510;49.560;19.090;2023-05-27T18:31:51;96964.50;;;12.06;61.84
68508;BME280;55510;49.560;19.090;2023-05-27T18:34:52;96965.75;;;11.74;62.66
68508;BME280;55510;49.560;19.090;2023-05-27T18:37:57;96964.22;;;11.50;64.44
68508;BME280;55510;49.560;19.090;2023-05-27T18:40:58;96956.34;;;11.31;65.67
68508;BME280;55510;49.560;19.090;2023-05-27T18:43:59;96961.81;;;11.12;66.84
68508;BME280;55510;49.560;19.090;2023-05-27T18:47:00;96966.22;;;10.71;69.64
68508;BME280;55510;49.560;19.090;2023-05-27T18:50:01;96963.63;;;10.52;71.42
68508;BME280;55510;49.560;19.090;2023-05-27T18:53:02;96971.16;;;10.43;71.99
68508;BME280;55510;49.560;19.090;2023-05-27T18:56:02;96969.09;;;10.27;72.66
68508;BME280;55510;49.560;19.090;2023-05-27T18:59:04;96980.31;;;9.98;74.68
68508;BME280;55510;49.560;19.090;2023-05-27T19:02:05;96984.00;;;9.97;74.89
68508;BME280;55510;49.560;19.090;2023-05-27T19:05:07;96991.59;;;9.82;76.35
68508;BME280;55510;49.560;19.090;2023-05-27T19:08:07;96991.88;;;9.74;77.42
68508;BME280;55510;49.560;19.090;2023-05-27T19:11:09;96990.78;;;9.63;78.55
68508;BME280;55510;49.560;19.090;2023-05-27T19:14:09;96994.78;;;9.53;79.26
68508;BME280;55510;49.560;19.090;2023-05-27T19:17:12;96993.22;;;9.46;79.33
68508;BME280;55510;49.560;19.090;2023-05-27T19:20:13;96985.16;;;9.34;80.00
68508;BME280;55510;49.560;19.090;2023-05-27T19:23:15;96981.19;;;9.24;80.30
68508;BME280;55510;49.560;19.090;2023-05-27T19:26:19;96979.16;;;9.01;82.54
68508;BME280;55510;49.560;19.090;2023-05-27T19:29:20;96994.63;;;8.85;83.71
68508;BME280;55510;49.560;19.090;2023-05-27T19:32:21;96995.56;;;8.66;85.14
68508;BME280;55510;49.560;19.090;2023-05-27T19:35:22;96992.16;;;8.59;85.25
68508;BME280;55510;49.560;19.090;2023-05-27T19:38:23;96997.72;;;8.50;85.65
68508;BME280;55510;49.560;19.090;2023-05-27T19:41:24;96992.88;;;8.40;86.00
68508;BME280;55510;49.560;19.090;2023-05-27T19:44:25;96991.75;;;8.23;86.59
68508;BME280;55510;49.560;19.090;2023-05-27T19:47:27;96999.53;;;8.18;86.61
68508;BME280;55510;49.560;19.090;2023-05-27T19:50:27;96991.19;;;8.14;86.44
68508;BME280;55510;49.560;19.090;2023-05-27T19:53:29;96990.47;;;7.93;88.20
68508;BME280;55510;49.560;19.090;2023-05-27T19:56:30;96991.53;;;7.86;87.73
68508;BME280;55510;49.560;19.090;2023-05-27T19:59:33;96990.38;;;7.68;88.91
68508;BME280;55510;49.560;19.090;2023-05-27T20:02:35;96990.00;;;7.58;89.60
68508;BME280;55510;49.560;19.090;2023-05-27T20:05:36;96991.63;;;7.59;89.47
68508;BME280;55510;49.560;19.090;2023-05-27T20:08:37;96984.72;;;7.51;89.68
68508;BME280;55510;49.560;19.090;2023-05-27T20:11:38;96980.31;;;7.38;90.33
68508;BME280;55510;49.560;19.090;2023-05-27T20:14:39;96985.00;;;7.36;90.71
68508;BME280;55510;49.560;19.090;2023-05-27T20:17:40;96985.59;;;7.38;89.63
68508;BME280;55510;49.560;19.090;2023-05-27T20:20:41;96981.09;;;7.38;89.09
68508;BME280;55510;49.560;19.090;2023-05-27T20:23:42;96978.88;;;7.29;89.82
68508;BME280;55510;49.560;19.090;2023-05-27T20:26:43;96979.91;;;7.28;89.51
68508;BME280;55510;49.560;19.090;2023-05-27T20:29:44;96978.28;;;7.26;89.95
68508;BME280;55510;49.560;19.090;2023-05-27T20:32:45;96977.47;;;7.26;89.74
68508;BME280;55510;49.560;19.090;2023-05-27T20:35:48;96976.88;;;7.24;89.81
68508;BME280;55510;49.560;19.090;2023-05-27T20:38:49;96977.47;;;7.19;91.25
68508;BME280;55510;49.560;19.090;2023-05-27T20:41:52;96975.47;;;7.01;92.81
68508;BME280;55510;49.560;19.090;2023-05-27T20:44:52;96980.38;;;6.97;93.61
68508;BME280;55510;49.560;19.090;2023-05-27T20:47:53;96974.91;;;6.92;93.66
68508;BME280;55510;49.560;19.090;2023-05-27T20:50:54;96980.38;;;6.91;94.41
68508;BME280;55510;49.560;19.090;2023-05-27T20:53:55;96979.38;;;6.85;95.49
68508;BME280;55510;49.560;19.090;2023-05-27T20:56:59;96968.19;;;6.76;95.56
68508;BME280;55510;49.560;19.090;2023-05-27T21:00:00;96972.25;;;6.72;95.90
68508;BME280;55510;49.560;19.090;2023-05-27T21:03:01;96974.47;;;6.62;96.74
68508;BME280;55510;49.560;19.090;2023-05-27T21:06:02;96964.09;;;6.53;97.70
68508;BME280;55510;49.560;19.090;2023-05-27T21:09:03;96967.38;;;6.56;97.21
68508;BME280;55510;49.560;19.090;2023-05-27T21:12:08;96973.69;;;6.48;97.41
68508;BME280;55510;49.560;19.090;2023-05-27T21:15:10;96973.25;;;6.44;97.42
68508;BME280;55510;49.560;19.090;2023-05-27T21:18:11;96973.25;;;6.31;98.51
68508;BME280;55510;49.560;19.090;2023-05-27T21:21:11;96966.94;;;6.12;99.58
68508;BME280;55510;49.560;19.090;2023-05-27T21:24:12;96970.38;;;6.12;99.41
68508;BME280;55510;49.560;19.090;2023-05-27T21:27:13;96969.13;;;6.08;99.53
68508;BME280;55510;49.560;19.090;2023-05-27T21:30:14;96963.25;;;6.06;99.57
68508;BME280;55510;49.560;19.090;2023-05-27T21:33:15;96963.22;;;5.99;99.86
68508;BME280;55510;49.560;19.090;2023-05-27T21:36:19;96967.25;;;5.88;99.97
68508;BME280;55510;49.560;19.090;2023-05-27T21:39:20;96962.34;;;5.78;100.00
68508;BME280;55510;49.560;19.090;2023-05-27T21:42:21;96963.56;;;5.76;100.00
68508;BME280;55510;49.560;19.090;2023-05-27T21:45:26;96961.88;;;5.61;100.00
68508;BME280;55510;49.560;19.090;2023-05-27T21:48:27;96956.94;;;5.45;100.00
68508;BME280;55510;49.560;19.090;2023-05-27T21:51:28;96957.94;;;5.44;100.00
68508;BME280;55510;49.560;19.090;2023-05-27T21:56:42;96966.84;;;5.36;100.00
68508;BME280;55510;49.560;19.090;2023-05-27T21:59:43;96960.75;;;5.35;100.00
68508;BME280;55510;49.560;19.090;2023-05-27T22:02:44;96958.72;;;5.37;100.00
68508;BME280;55510;49.560;19.090;2023-05-27T22:05:44;96957.72;;;5.39;100.00
68508;BME280;55510;49.560;19.090;2023-05-27T22:08:47;96959.34;;;5.40;100.00
68508;BME280;55510;49.560;19.090;2023-05-27T22:11:48;96953.25;;;5.39;100.00
68508;BME280;55510;49.560;19.090;2023-05-27T22:14:49;96960.16;;;5.40;100.00
68508;BME280;55510;49.560;19.090;2023-05-27T22:17:50;96956.09;;;5.37;100.00
68508;BME280;55510;49.560;19.090;2023-05-27T22:20:52;96951.59;;;5.31;100.00
